createdAt,value
2023-03-07T00:00:19.698Z,10.48
2023-03-07T00:02:51.418Z,10.38
2023-03-07T00:05:19.361Z,10.50
2023-03-07T00:07:47.222Z,9.95
2023-03-07T00:10:15.212Z,10.50
2023-03-07T00:12:43.141Z,9.73
2023-03-07T00:15:11.811Z,9.50
2023-03-07T00:17:39.880Z,10.68
2023-03-07T00:20:08.520Z,10.05
2023-03-07T00:22:36.468Z,10.02
2023-03-07T00:25:04.876Z,10.52
2023-03-07T00:27:37.067Z,11.35
2023-03-07T00:30:05.796Z,10.10
2023-03-07T00:32:33.620Z,10.63
2023-03-07T00:35:01.971Z,9.55
2023-03-07T00:37:30.909Z,9.50
2023-03-07T00:39:58.896Z,10.70
2023-03-07T00:42:26.666Z,11.13
2023-03-07T00:44:54.584Z,11.57
2023-03-07T00:47:22.434Z,9.90
2023-03-07T00:49:50.158Z,10.57
2023-03-07T00:52:17.964Z,10.20
2023-03-07T00:54:45.879Z,10.88
2023-03-07T00:57:13.525Z,10.18
2023-03-07T00:59:41.569Z,10.18
2023-03-07T01:02:09.317Z,10.05
2023-03-07T01:04:37.172Z,9.95
2023-03-07T01:07:04.949Z,9.32
2023-03-07T01:09:33.270Z,10.63
2023-03-07T01:12:01.062Z,10.85
2023-03-07T01:14:28.759Z,11.75
2023-03-07T01:16:56.919Z,10.23
2023-03-07T01:19:24.912Z,10.00
2023-03-07T01:21:55.478Z,9.65
2023-03-07T01:24:23.750Z,10.30
2023-03-07T01:26:51.810Z,9.50
2023-03-07T01:29:19.761Z,10.73
2023-03-07T01:31:47.549Z,9.45
2023-03-07T01:34:15.411Z,10.95
2023-03-07T01:36:43.315Z,11.25
2023-03-07T01:39:14.669Z,9.90
2023-03-07T01:41:53.291Z,11.05
2023-03-07T01:44:26.045Z,10.23
2023-03-07T01:46:55.711Z,10.00
2023-03-07T01:49:46.644Z,10.65
2023-03-07T01:52:23.276Z,10.38
2023-03-07T01:55:17.958Z,9.73
2023-03-07T01:57:51.135Z,10.02
2023-03-07T02:00:31.495Z,9.30
2023-03-07T02:03:11.056Z,10.25
2023-03-07T02:05:47.673Z,8.93
2023-03-07T02:08:17.575Z,9.52
2023-03-07T02:10:45.834Z,9.68
2023-03-07T02:13:13.637Z,10.85
2023-03-07T02:15:42.721Z,9.57
2023-03-07T02:18:16.000Z,8.95
2023-03-07T02:20:52.577Z,9.10
2023-03-07T02:23:38.268Z,10.25
2023-03-07T02:26:31.445Z,9.30
2023-03-07T02:29:01.482Z,9.95
2023-03-07T02:31:30.924Z,9.88
2023-03-07T02:33:59.126Z,9.07
2023-03-07T02:36:35.033Z,10.82
2023-03-07T02:39:26.002Z,10.55
2023-03-07T02:41:56.929Z,9.93
2023-03-07T02:44:33.074Z,10.15
2023-03-07T02:47:00.748Z,9.60
2023-03-07T02:49:29.264Z,10.45
2023-03-07T02:52:00.656Z,8.38
2023-03-07T02:54:29.888Z,10.13
2023-03-07T02:56:58.695Z,9.50
2023-03-07T02:59:26.743Z,10.73
2023-03-07T03:01:55.190Z,8.52
2023-03-07T03:04:23.138Z,9.60
2023-03-07T03:06:50.900Z,10.77
2023-03-07T03:09:21.977Z,10.82
2023-03-07T03:11:49.742Z,10.00
2023-03-07T03:14:20.438Z,11.20
2023-03-07T03:16:48.194Z,9.80
2023-03-07T03:19:16.155Z,11.48
2023-03-07T03:21:46.599Z,11.25
2023-03-07T03:24:14.622Z,10.27
2023-03-07T03:26:42.624Z,10.18
2023-03-07T03:29:10.973Z,10.38
2023-03-07T03:31:38.874Z,10.52
2023-03-07T03:34:07.589Z,10.55
2023-03-07T03:36:35.264Z,9.20
2023-03-07T03:39:11.044Z,10.65
2023-03-07T03:41:44.526Z,11.02
2023-03-07T03:44:12.651Z,9.68
2023-03-07T03:46:41.095Z,11.20
2023-03-07T03:49:13.440Z,10.10
2023-03-07T03:51:41.999Z,9.85
2023-03-07T03:54:10.057Z,9.82
2023-03-07T03:56:38.187Z,11.18
2023-03-07T03:59:05.976Z,11.35
2023-03-07T04:01:34.083Z,10.20
2023-03-07T04:04:02.655Z,11.23
2023-03-07T04:06:36.274Z,9.73
2023-03-07T04:09:05.498Z,10.20
2023-03-07T04:11:33.647Z,10.82
2023-03-07T04:14:02.455Z,9.40
2023-03-07T04:16:30.287Z,11.02
2023-03-07T04:18:58.388Z,10.38
2023-03-07T04:21:26.251Z,10.60
2023-03-07T04:23:58.555Z,10.25
2023-03-07T04:26:30.020Z,11.18
2023-03-07T04:28:58.429Z,9.52
2023-03-07T04:31:52.563Z,11.27
2023-03-07T04:34:20.545Z,9.43
2023-03-07T04:36:48.346Z,10.68
2023-03-07T04:39:16.449Z,10.10
2023-03-07T04:41:45.102Z,11.55
2023-03-07T04:44:18.232Z,9.05
2023-03-07T04:46:45.928Z,10.25
2023-03-07T04:49:13.744Z,10.73
2023-03-07T04:51:44.056Z,10.90
2023-03-07T04:54:13.479Z,9.48
2023-03-07T04:56:42.188Z,9.65
2023-03-07T04:59:11.756Z,10.95
2023-03-07T05:01:39.634Z,10.35
2023-03-07T05:04:08.097Z,11.63
2023-03-07T05:06:36.176Z,10.82
2023-03-07T05:09:04.859Z,11.70
2023-03-07T05:11:32.678Z,10.10
2023-03-07T05:14:00.677Z,11.10
2023-03-07T05:16:28.350Z,10.43
2023-03-07T05:18:56.176Z,9.88
2023-03-07T05:21:24.059Z,10.93
2023-03-07T05:23:51.911Z,10.43
2023-03-07T05:26:19.939Z,9.52
2023-03-07T05:28:48.462Z,10.60
2023-03-07T05:31:18.368Z,10.27
2023-03-07T05:33:46.832Z,10.27
2023-03-07T05:36:15.644Z,9.85
2023-03-07T05:38:44.283Z,10.20
2023-03-07T05:41:13.348Z,10.82
2023-03-07T05:43:44.491Z,10.02
2023-03-07T05:46:12.285Z,14.77
2023-03-07T05:48:39.995Z,12.23
2023-03-07T05:51:07.863Z,10.82
2023-03-07T05:53:35.529Z,9.68
2023-03-07T05:56:04.736Z,9.15
2023-03-07T05:58:36.582Z,9.65
2023-03-07T06:01:04.945Z,12.43
2023-03-07T06:03:34.832Z,12.38
2023-03-07T06:06:03.239Z,10.63
2023-03-07T06:08:30.973Z,10.63
2023-03-07T06:10:58.868Z,11.40
2023-03-07T06:13:26.956Z,11.07
2023-03-07T06:15:55.494Z,10.68
2023-03-07T06:18:25.880Z,12.15
2023-03-07T06:21:03.518Z,10.68
2023-03-07T06:23:36.765Z,10.38
2023-03-07T06:26:10.442Z,11.23
2023-03-07T06:28:39.892Z,14.05
2023-03-07T06:31:13.161Z,10.50
2023-03-07T06:33:41.936Z,10.45
2023-03-07T06:36:12.900Z,12.38
2023-03-07T06:38:42.915Z,12.52
2023-03-07T06:41:11.334Z,12.05
2023-03-07T06:43:39.560Z,12.95
2023-03-07T06:46:07.635Z,11.88
2023-03-07T06:48:40.175Z,11.55
2023-03-07T06:51:14.157Z,12.35
2023-03-07T06:53:45.512Z,12.10
2023-03-07T06:56:13.728Z,12.73
2023-03-07T06:58:45.412Z,13.23
2023-03-07T07:01:22.292Z,12.73
2023-03-07T07:03:56.705Z,12.75
2023-03-07T07:06:25.160Z,12.95
2023-03-07T07:08:57.489Z,11.80
2023-03-07T07:11:27.902Z,11.45
2023-03-07T07:13:56.563Z,12.90
2023-03-07T07:16:24.874Z,11.02
2023-03-07T07:18:53.155Z,12.23
2023-03-07T07:21:21.181Z,12.32
2023-03-07T07:23:49.368Z,12.18
2023-03-07T07:26:17.255Z,11.40
2023-03-07T07:28:45.612Z,11.43
2023-03-07T07:31:13.837Z,13.82
2023-03-07T07:33:42.188Z,11.70
2023-03-07T07:36:10.707Z,11.45
2023-03-07T07:38:38.492Z,10.38
2023-03-07T07:41:06.147Z,12.38
2023-03-07T07:43:34.795Z,8.50
2023-03-07T07:46:18.606Z,13.70
2023-03-07T07:48:50.005Z,13.20
2023-03-07T07:51:17.897Z,9.73
2023-03-07T07:53:45.937Z,9.07
2023-03-07T07:56:14.152Z,9.35
2023-03-07T07:58:42.060Z,7.80
2023-03-07T08:01:23.872Z,11.40
2023-03-07T08:03:52.040Z,8.85
2023-03-07T08:06:21.650Z,8.95
2023-03-07T08:08:50.292Z,9.95
2023-03-07T08:11:19.190Z,9.80
2023-03-07T08:13:47.097Z,9.60
2023-03-07T08:16:17.635Z,9.88
2023-03-07T08:18:51.775Z,9.63
2023-03-07T08:21:20.328Z,11.20
2023-03-07T08:23:48.084Z,7.78
2023-03-07T08:26:17.781Z,8.68
2023-03-07T08:28:45.947Z,9.48
2023-03-07T08:31:15.041Z,9.68
2023-03-07T08:33:43.207Z,7.18
2023-03-07T08:36:10.911Z,7.00
2023-03-07T08:38:38.679Z,7.93
2023-03-07T08:41:08.699Z,7.05
2023-03-07T08:43:37.917Z,7.25
2023-03-07T08:46:06.043Z,8.10
2023-03-07T08:48:33.946Z,8.60
2023-03-07T08:51:10.512Z,8.82
2023-03-07T08:53:38.505Z,7.10
2023-03-07T08:56:07.857Z,7.20
2023-03-07T08:58:35.812Z,7.85
2023-03-07T09:01:04.843Z,7.07
2023-03-07T09:03:33.331Z,6.85
2023-03-07T09:06:04.781Z,7.38
2023-03-07T09:08:34.774Z,10.43
2023-03-07T09:11:05.536Z,9.65
2023-03-07T09:13:43.041Z,7.82
2023-03-07T09:16:14.237Z,7.13
2023-03-07T09:18:41.927Z,7.70
2023-03-07T09:21:09.599Z,7.60
2023-03-07T09:23:37.377Z,6.97
2023-03-07T09:26:05.928Z,7.50
2023-03-07T09:28:33.767Z,6.97
2023-03-07T09:31:07.944Z,6.90
2023-03-07T09:33:35.861Z,8.68
2023-03-07T09:36:08.901Z,8.40
2023-03-07T09:38:37.494Z,6.63
2023-03-07T09:41:16.296Z,7.40
2023-03-07T09:43:51.758Z,8.65
2023-03-07T09:47:12.899Z,7.95
2023-03-07T09:49:43.407Z,7.40
2023-03-07T09:52:19.290Z,7.40
2023-03-07T09:55:19.315Z,7.40
2023-03-07T09:58:16.093Z,6.75
2023-03-07T10:03:31.990Z,7.63
2023-03-07T10:08:35.444Z,11.23
2023-03-07T10:11:09.147Z,8.05
2023-03-07T10:13:50.800Z,8.27
2023-03-07T10:16:33.074Z,7.80
2023-03-07T10:19:32.495Z,7.25
2023-03-07T10:22:18.956Z,7.28
2023-03-07T10:27:17.990Z,7.07
2023-03-07T10:29:52.298Z,7.25
2023-03-07T10:32:35.291Z,7.40
2023-03-07T10:35:12.062Z,7.32
2023-03-07T10:37:53.592Z,7.75
2023-03-07T10:40:34.145Z,6.88
2023-03-07T10:43:02.767Z,6.38
2023-03-07T10:45:33.175Z,5.85
2023-03-07T10:48:09.296Z,6.43
2023-03-07T10:50:49.507Z,6.57
2023-03-07T10:53:26.874Z,6.05
2023-03-07T10:56:16.547Z,7.15
2023-03-07T10:59:09.558Z,7.05
2023-03-07T11:01:54.293Z,6.68
2023-03-07T11:04:24.301Z,6.85
2023-03-07T11:07:00.778Z,5.88
2023-03-07T11:09:45.901Z,6.13
2023-03-07T11:12:20.566Z,7.53
2023-03-07T11:14:49.721Z,5.80
2023-03-07T11:17:40.532Z,8.13
2023-03-07T11:20:29.937Z,6.88
2023-03-07T11:23:30.995Z,6.78
2023-03-07T11:26:16.229Z,6.80
2023-03-07T11:28:44.024Z,7.28
2023-03-07T11:31:32.152Z,8.05
2023-03-07T11:34:21.054Z,7.15
2023-03-07T11:36:55.392Z,6.57
2023-03-07T11:39:36.932Z,6.47
2023-03-07T11:42:15.676Z,5.25
2023-03-07T11:44:54.481Z,8.15
2023-03-07T11:47:31.324Z,6.60
2023-03-07T11:50:17.369Z,6.50
2023-03-07T11:53:03.963Z,7.70
2023-03-07T11:56:01.115Z,7.05
2023-03-07T11:58:53.958Z,4.53
2023-03-07T12:01:29.848Z,4.57
2023-03-07T12:04:12.070Z,4.53
2023-03-07T12:06:57.621Z,5.97
2023-03-07T12:09:46.607Z,6.30
2023-03-07T12:12:35.388Z,7.00
2023-03-07T12:15:22.033Z,7.20
2023-03-07T12:18:32.586Z,4.90
2023-03-07T12:21:36.548Z,8.25
2023-03-07T12:24:20.589Z,6.78
2023-03-07T12:27:04.432Z,7.88
2023-03-07T12:29:41.308Z,7.20
2023-03-07T12:32:32.158Z,6.57
2023-03-07T12:35:09.915Z,6.32
2023-03-07T12:37:44.515Z,6.13
2023-03-07T12:40:21.957Z,5.95
2023-03-07T12:43:13.442Z,6.45
2023-03-07T12:45:54.080Z,6.32
2023-03-07T12:48:56.891Z,6.70
2023-03-07T12:51:40.689Z,6.10
2023-03-07T12:54:37.126Z,6.22
2023-03-07T12:57:30.260Z,6.57
2023-03-07T13:00:03.301Z,7.07
2023-03-07T13:02:41.880Z,6.38
2023-03-07T13:05:30.452Z,5.95
2023-03-07T13:07:58.675Z,6.03
2023-03-07T13:10:26.916Z,6.60
2023-03-07T13:12:54.895Z,5.57
2023-03-07T13:15:26.073Z,5.43
2023-03-07T13:18:00.752Z,4.75
2023-03-07T13:20:28.441Z,4.75
2023-03-07T13:22:59.567Z,4.55
2023-03-07T13:25:27.859Z,4.43
2023-03-07T13:28:00.721Z,4.57
2023-03-07T13:30:34.970Z,4.68
2023-03-07T13:33:07.233Z,4.65
2023-03-07T13:35:46.537Z,4.15
2023-03-07T13:38:34.401Z,3.80
2023-03-07T13:41:06.863Z,4.30
2023-03-07T13:43:56.532Z,4.95
2023-03-07T13:46:43.372Z,5.55
2023-03-07T13:49:11.175Z,5.72
2023-03-07T13:51:39.116Z,4.25
2023-03-07T13:54:12.886Z,4.13
2023-03-07T13:56:43.111Z,3.65
2023-03-07T13:59:10.736Z,4.53
2023-03-07T14:02:01.137Z,4.55
2023-03-07T14:04:51.948Z,4.28
2023-03-07T14:07:22.306Z,4.82
2023-03-07T14:09:53.749Z,4.75
2023-03-07T14:12:35.737Z,4.10
2023-03-07T14:15:35.491Z,4.88
2023-03-07T14:18:22.220Z,4.13
2023-03-07T14:21:11.171Z,3.75
2023-03-07T14:23:47.214Z,3.88
2023-03-07T14:26:37.610Z,4.93
2023-03-07T14:29:29.778Z,3.85
2023-03-07T14:32:00.727Z,4.47
2023-03-07T14:34:32.523Z,4.70
2023-03-07T14:37:26.676Z,5.18
2023-03-07T14:40:15.949Z,4.60
2023-03-07T14:43:00.453Z,4.38
2023-03-07T14:45:37.222Z,4.60
2023-03-07T14:48:26.833Z,3.85
2023-03-07T14:50:54.802Z,4.32
2023-03-07T14:53:26.671Z,4.30
2023-03-07T14:55:58.824Z,5.95
2023-03-07T14:58:32.662Z,4.57
2023-03-07T15:01:19.786Z,5.00
2023-03-07T15:03:52.729Z,5.28
2023-03-07T15:06:23.289Z,5.50
2023-03-07T15:08:54.081Z,4.72
2023-03-07T15:11:41.808Z,5.07
2023-03-07T15:14:19.683Z,4.38
2023-03-07T15:16:53.766Z,4.28
2023-03-07T15:20:00.664Z,4.75
2023-03-07T15:22:33.945Z,4.70
2023-03-07T15:25:01.658Z,5.03
2023-03-07T15:27:31.819Z,4.38
2023-03-07T15:30:02.265Z,3.80
2023-03-07T15:32:39.894Z,3.80
2023-03-07T15:35:13.490Z,4.53
2023-03-07T15:38:13.833Z,3.92
2023-03-07T15:40:42.379Z,5.07
2023-03-07T15:43:30.156Z,4.15
2023-03-07T15:46:04.310Z,5.07
2023-03-07T15:48:51.557Z,4.72
2023-03-07T15:51:34.417Z,5.22
2023-03-07T15:54:13.069Z,5.00
2023-03-07T15:56:45.549Z,6.60
2023-03-07T15:59:31.310Z,5.43
2023-03-07T16:02:26.010Z,5.15
2023-03-07T16:04:53.986Z,4.88
2023-03-07T16:07:21.654Z,3.90
2023-03-07T16:09:49.341Z,4.63
2023-03-07T16:12:21.009Z,4.10
2023-03-07T16:14:50.623Z,3.88
2023-03-07T16:17:39.232Z,4.03
2023-03-07T16:20:28.058Z,4.07
2023-03-07T16:22:56.695Z,4.38
2023-03-07T16:25:27.505Z,5.38
2023-03-07T16:27:59.462Z,6.00
2023-03-07T16:30:29.099Z,6.00
2023-03-07T16:32:56.770Z,5.88
2023-03-07T16:35:26.713Z,6.45
2023-03-07T16:37:55.485Z,6.25
2023-03-07T16:40:23.789Z,6.93
2023-03-07T16:42:51.533Z,7.10
2023-03-07T16:45:19.413Z,5.93
2023-03-07T16:47:55.831Z,6.28
2023-03-07T16:50:29.881Z,6.28
2023-03-07T16:52:58.086Z,5.80
2023-03-07T16:55:26.617Z,12.80
2023-03-07T16:58:00.187Z,10.63
2023-03-07T17:00:28.997Z,8.98
2023-03-07T17:03:05.342Z,6.57
2023-03-07T17:05:33.496Z,6.57
2023-03-07T17:08:01.214Z,6.90
2023-03-07T17:10:29.090Z,4.70
2023-03-07T17:12:57.688Z,4.68
2023-03-07T17:15:30.976Z,4.63
2023-03-07T17:18:00.545Z,5.07
2023-03-07T17:20:28.855Z,6.90
2023-03-07T17:23:00.077Z,12.30
2023-03-07T17:25:28.676Z,5.32
2023-03-07T17:28:04.576Z,6.88
2023-03-07T17:33:01.275Z,5.10
2023-03-07T17:35:33.587Z,5.60
2023-03-07T17:38:03.690Z,5.35
2023-03-07T17:40:31.390Z,5.05
2023-03-07T17:43:11.718Z,8.95
2023-03-07T17:45:45.589Z,5.05
2023-03-07T17:48:13.554Z,5.82
2023-03-07T17:50:41.874Z,5.38
2023-03-07T17:53:14.377Z,5.72
2023-03-07T17:55:45.915Z,6.53
2023-03-07T17:58:15.917Z,5.22
2023-03-07T18:00:43.694Z,5.32
2023-03-07T18:03:11.506Z,7.15
2023-03-07T18:05:40.374Z,7.75
2023-03-07T18:08:08.078Z,5.22
2023-03-07T18:10:35.847Z,4.65
2023-03-07T18:13:06.793Z,4.93
2023-03-07T18:15:35.793Z,5.18
2023-03-07T18:18:03.987Z,8.50
2023-03-07T18:20:31.711Z,5.95
2023-03-07T18:22:59.351Z,5.32
2023-03-07T18:25:26.993Z,5.65
2023-03-07T18:27:54.933Z,5.38
2023-03-07T18:30:22.785Z,7.60
2023-03-07T18:32:52.662Z,6.65
2023-03-07T18:35:20.351Z,6.78
2023-03-07T18:37:47.978Z,7.75
2023-03-07T18:40:15.824Z,7.47
2023-03-07T18:42:43.710Z,6.75
2023-03-07T18:45:11.918Z,7.07
2023-03-07T18:47:39.737Z,6.57
2023-03-07T18:50:09.350Z,5.03
2023-03-07T18:52:37.088Z,4.88
2023-03-07T18:55:07.577Z,5.35
2023-03-07T18:57:35.350Z,5.40
2023-03-07T19:00:04.599Z,5.15
2023-03-07T19:02:35.227Z,4.85
2023-03-07T19:05:02.990Z,4.50
2023-03-07T19:07:31.538Z,4.47
2023-03-07T19:09:59.781Z,4.88
2023-03-07T19:12:27.516Z,5.65
2023-03-07T19:14:55.230Z,6.50
2023-03-07T19:17:23.091Z,5.32
2023-03-07T19:19:54.643Z,5.97
2023-03-07T19:22:25.909Z,6.82
2023-03-07T19:24:55.097Z,6.28
2023-03-07T19:27:22.784Z,10.02
2023-03-07T19:29:50.555Z,11.63
2023-03-07T19:32:18.865Z,9.00
2023-03-07T19:34:50.492Z,9.68
2023-03-07T19:37:18.105Z,9.02
2023-03-07T19:39:45.952Z,7.10
2023-03-07T19:42:13.612Z,8.73
2023-03-07T19:44:41.379Z,9.32
2023-03-07T19:47:09.043Z,8.93
2023-03-07T19:49:39.974Z,7.43
2023-03-07T19:52:07.694Z,7.72
2023-03-07T19:54:35.423Z,8.40
2023-03-07T19:57:03.235Z,7.93
2023-03-07T19:59:30.887Z,7.57
2023-03-07T20:01:58.677Z,8.13
2023-03-07T20:04:26.436Z,8.82
2023-03-07T20:06:54.255Z,10.77
2023-03-07T20:09:23.317Z,10.63
2023-03-07T20:11:50.989Z,9.95
2023-03-07T20:14:18.805Z,9.85
2023-03-07T20:16:46.477Z,9.95
2023-03-07T20:19:14.315Z,9.63
2023-03-07T20:21:44.298Z,10.05
2023-03-07T20:24:12.930Z,9.82
2023-03-07T20:26:40.892Z,9.10
2023-03-07T20:29:09.900Z,8.80
2023-03-07T20:31:39.531Z,9.80
2023-03-07T20:34:07.645Z,9.70
2023-03-07T20:36:37.905Z,9.52
2023-03-07T20:39:08.261Z,9.00
2023-03-07T20:41:36.333Z,8.20
2023-03-07T20:44:07.274Z,8.32
2023-03-07T20:46:35.888Z,8.57
2023-03-07T20:49:04.606Z,8.50
2023-03-07T20:51:34.817Z,8.10
2023-03-07T20:54:04.811Z,7.85
2023-03-07T20:56:37.817Z,6.70
2023-03-07T20:59:06.244Z,7.63
2023-03-07T21:01:34.975Z,6.57
2023-03-07T21:04:06.453Z,5.07
2023-03-07T21:06:35.479Z,5.80
2023-03-07T21:09:06.457Z,6.50
2023-03-07T21:11:35.601Z,6.15
2023-03-07T21:14:04.303Z,5.90
2023-03-07T21:16:32.326Z,6.35
2023-03-07T21:19:02.222Z,8.57
2023-03-07T21:21:33.498Z,5.85
2023-03-07T21:24:01.329Z,5.75
2023-03-07T21:26:34.352Z,6.32
2023-03-07T21:29:12.666Z,7.43
2023-03-07T21:31:40.517Z,6.70
2023-03-07T21:34:15.236Z,5.72
2023-03-07T21:36:48.074Z,7.60
2023-03-07T21:39:15.828Z,6.32
2023-03-07T21:41:43.546Z,6.30
2023-03-07T21:44:15.204Z,6.68
2023-03-07T21:46:43.012Z,8.00
2023-03-07T21:49:13.861Z,6.60
2023-03-07T21:51:41.798Z,7.38
2023-03-07T21:54:09.562Z,6.35
2023-03-07T21:56:37.258Z,6.75
2023-03-07T21:59:04.982Z,6.70
2023-03-07T22:01:35.218Z,7.32
2023-03-07T22:04:03.485Z,6.28
2023-03-07T22:06:31.137Z,5.95
2023-03-07T22:09:01.457Z,4.93
2023-03-07T22:11:29.316Z,5.18
2023-03-07T22:13:57.171Z,4.65
2023-03-07T22:16:25.102Z,4.90
2023-03-07T22:18:56.715Z,5.65
2023-03-07T22:21:26.246Z,3.85
2023-03-07T22:24:00.767Z,5.03
2023-03-07T22:26:31.277Z,6.57
2023-03-07T22:28:59.970Z,5.10
2023-03-07T22:31:27.767Z,5.13
2023-03-07T22:33:55.647Z,6.13
2023-03-07T22:36:23.396Z,5.55
2023-03-07T22:38:57.276Z,5.53
2023-03-07T22:41:26.243Z,5.88
2023-03-07T22:43:54.022Z,5.82
2023-03-07T22:46:22.358Z,5.70
2023-03-07T22:48:56.889Z,6.32
2023-03-07T22:51:26.353Z,5.43
2023-03-07T22:53:54.738Z,6.70
2023-03-07T22:56:27.721Z,5.45
2023-03-07T22:58:55.624Z,4.65
2023-03-07T23:01:28.808Z,4.90
2023-03-07T23:03:58.440Z,4.78
2023-03-07T23:06:31.904Z,5.80
2023-03-07T23:09:01.561Z,5.18
2023-03-07T23:11:30.979Z,5.32
2023-03-07T23:13:59.165Z,5.05
2023-03-07T23:16:32.370Z,5.13
2023-03-07T23:19:00.525Z,4.57
2023-03-07T23:21:30.416Z,5.53
2023-03-07T23:23:59.381Z,5.30
2023-03-07T23:26:32.790Z,5.07
2023-03-07T23:29:01.209Z,4.70
2023-03-07T23:31:31.747Z,5.90
2023-03-07T23:34:07.055Z,4.95
2023-03-07T23:36:35.014Z,5.40
2023-03-07T23:39:03.529Z,4.85
2023-03-07T23:41:31.245Z,4.00
2023-03-07T23:44:00.379Z,4.88
2023-03-07T23:46:29.388Z,6.25
2023-03-07T23:48:57.704Z,5.07
2023-03-07T23:51:25.726Z,5.20
2023-03-07T23:53:53.409Z,4.72
2023-03-07T23:56:21.932Z,5.25
2023-03-07T23:58:53.340Z,6.30
